sensor_id;sensor_type;location;lat;lon;timestamp;P1;durP1;ratioP1;P2;durP2;ratioP2
19778;SDS011;10049;59.306;18.090;2022-07-29T00:02:07;0.30;;;0.30;;
19778;SDS011;10049;59.306;18.090;2022-07-29T00:04:34;0.70;;;0.40;;
19778;SDS011;10049;59.306;18.090;2022-07-29T00:07:03;0.20;;;0.20;;
19778;SDS011;10049;59.306;18.090;2022-07-29T00:09:32;1.55;;;0.20;;
19778;SDS011;10049;59.306;18.090;2022-07-29T00:11:59;0.30;;;0.30;;
19778;SDS011;10049;59.306;18.090;2022-07-29T00:14:28;1.95;;;0.40;;
19778;SDS011;10049;59.306;18.090;2022-07-29T00:16:55;0.35;;;0.30;;
19778;SDS011;10049;59.306;18.090;2022-07-29T00:19:22;0.30;;;0.30;;
19778;SDS011;10049;59.306;18.090;2022-07-29T00:21:50;1.33;;;0.30;;
19778;SDS011;10049;59.306;18.090;2022-07-29T00:24:18;0.20;;;0.20;;
19778;SDS011;10049;59.306;18.090;2022-07-29T00:26:46;1.10;;;0.35;;
19778;SDS011;10049;59.306;18.090;2022-07-29T00:29:15;0.25;;;0.25;;
19778;SDS011;10049;59.306;18.090;2022-07-29T00:31:43;0.30;;;0.30;;
19778;SDS011;10049;59.306;18.090;2022-07-29T00:34:10;0.35;;;0.25;;
19778;SDS011;10049;59.306;18.090;2022-07-29T00:36:51;0.57;;;0.30;;
19778;SDS011;10049;59.306;18.090;2022-07-29T00:39:20;0.50;;;0.32;;
19778;SDS011;10049;59.306;18.090;2022-07-29T00:41:47;0.40;;;0.30;;
19778;SDS011;10049;59.306;18.090;2022-07-29T00:44:15;0.20;;;0.20;;
19778;SDS011;10049;59.306;18.090;2022-07-29T00:46:42;0.20;;;0.20;;
19778;SDS011;10049;59.306;18.090;2022-07-29T00:49:10;0.55;;;0.30;;
19778;SDS011;10049;59.306;18.090;2022-07-29T00:51:37;0.73;;;0.30;;
19778;SDS011;10049;59.306;18.090;2022-07-29T00:54:05;0.30;;;0.30;;
19778;SDS011;10049;59.306;18.090;2022-07-29T00:56:33;3.10;;;0.32;;
19778;SDS011;10049;59.306;18.090;2022-07-29T00:59:01;0.30;;;0.30;;
19778;SDS011;10049;59.306;18.090;2022-07-29T01:01:29;0.40;;;0.30;;
19778;SDS011;10049;59.306;18.090;2022-07-29T01:03:56;0.52;;;0.40;;
19778;SDS011;10049;59.306;18.090;2022-07-29T01:06:27;1.42;;;0.40;;
19778;SDS011;10049;59.306;18.090;2022-07-29T01:08:54;0.30;;;0.30;;
19778;SDS011;10049;59.306;18.090;2022-07-29T01:11:23;0.75;;;0.40;;
19778;SDS011;10049;59.306;18.090;2022-07-29T01:13:52;1.23;;;0.40;;
19778;SDS011;10049;59.306;18.090;2022-07-29T01:16:21;0.95;;;0.47;;
19778;SDS011;10049;59.306;18.090;2022-07-29T01:18:51;2.85;;;0.40;;
19778;SDS011;10049;59.306;18.090;2022-07-29T01:21:32;1.02;;;0.40;;
19778;SDS011;10049;59.306;18.090;2022-07-29T01:24:11;2.78;;;0.50;;
19778;SDS011;10049;59.306;18.090;2022-07-29T01:26:45;0.30;;;0.30;;
19778;SDS011;10049;59.306;18.090;2022-07-29T01:29:18;0.82;;;0.50;;
19778;SDS011;10049;59.306;18.090;2022-07-29T01:31:51;2.28;;;0.40;;
19778;SDS011;10049;59.306;18.090;2022-07-29T01:34:21;1.42;;;0.40;;
19778;SDS011;10049;59.306;18.090;2022-07-29T01:36:51;0.65;;;0.40;;
19778;SDS011;10049;59.306;18.090;2022-07-29T01:39:23;2.33;;;0.43;;
19778;SDS011;10049;59.306;18.090;2022-07-29T01:41:55;1.75;;;0.55;;
19778;SDS011;10049;59.306;18.090;2022-07-29T01:44:26;0.60;;;0.40;;
19778;SDS011;10049;59.306;18.090;2022-07-29T01:46:57;0.35;;;0.35;;
19778;SDS011;10049;59.306;18.090;2022-07-29T01:49:25;1.00;;;0.40;;
19778;SDS011;10049;59.306;18.090;2022-07-29T01:51:57;0.68;;;0.38;;
19778;SDS011;10049;59.306;18.090;2022-07-29T01:54:28;0.40;;;0.40;;
19778;SDS011;10049;59.306;18.090;2022-07-29T01:56:56;0.95;;;0.82;;
19778;SDS011;10049;59.306;18.090;2022-07-29T01:59:24;0.95;;;0.40;;
19778;SDS011;10049;59.306;18.090;2022-07-29T02:01:56;2.05;;;0.47;;
19778;SDS011;10049;59.306;18.090;2022-07-29T02:04:24;4.30;;;0.40;;
19778;SDS011;10049;59.306;18.090;2022-07-29T02:06:53;0.50;;;0.40;;
19778;SDS011;10049;59.306;18.090;2022-07-29T02:09:22;0.85;;;0.50;;
19778;SDS011;10049;59.306;18.090;2022-07-29T02:11:52;4.07;;;0.40;;
19778;SDS011;10049;59.306;18.090;2022-07-29T02:14:21;2.90;;;0.50;;
19778;SDS011;10049;59.306;18.090;2022-07-29T02:16:50;1.05;;;0.50;;
19778;SDS011;10049;59.306;18.090;2022-07-29T02:19:23;1.02;;;0.40;;
19778;SDS011;10049;59.306;18.090;2022-07-29T02:21:53;2.05;;;0.40;;
19778;SDS011;10049;59.306;18.090;2022-07-29T02:24:21;0.32;;;0.32;;
19778;SDS011;10049;59.306;18.090;2022-07-29T02:26:51;0.40;;;0.32;;
19778;SDS011;10049;59.306;18.090;2022-07-29T02:29:22;0.63;;;0.30;;
19778;SDS011;10049;59.306;18.090;2022-07-29T02:31:50;1.25;;;0.40;;
19778;SDS011;10049;59.306;18.090;2022-07-29T02:34:21;2.30;;;0.40;;
19778;SDS011;10049;59.306;18.090;2022-07-29T02:36:48;0.77;;;0.50;;
19778;SDS011;10049;59.306;18.090;2022-07-29T02:39:16;0.95;;;0.47;;
19778;SDS011;10049;59.306;18.090;2022-07-29T02:41:44;1.65;;;0.45;;
19778;SDS011;10049;59.306;18.090;2022-07-29T02:44:15;1.15;;;0.30;;
19778;SDS011;10049;59.306;18.090;2022-07-29T02:46:44;0.88;;;0.43;;
19778;SDS011;10049;59.306;18.090;2022-07-29T02:49:15;0.50;;;0.30;;
19778;SDS011;10049;59.306;18.090;2022-07-29T02:51:45;1.38;;;0.40;;
19778;SDS011;10049;59.306;18.090;2022-07-29T02:54:20;0.75;;;0.40;;
19778;SDS011;10049;59.306;18.090;2022-07-29T02:56:49;0.43;;;0.43;;
19778;SDS011;10049;59.306;18.090;2022-07-29T02:59:21;0.70;;;0.30;;
19778;SDS011;10049;59.306;18.090;2022-07-29T03:01:52;1.20;;;0.40;;
19778;SDS011;10049;59.306;18.090;2022-07-29T03:04:21;6.25;;;1.23;;
19778;SDS011;10049;59.306;18.090;2022-07-29T03:06:51;1.13;;;0.40;;
19778;SDS011;10049;59.306;18.090;2022-07-29T03:09:21;0.50;;;0.30;;
19778;SDS011;10049;59.306;18.090;2022-07-29T03:11:50;3.35;;;0.40;;
19778;SDS011;10049;59.306;18.090;2022-07-29T03:14:19;1.85;;;0.47;;
19778;SDS011;10049;59.306;18.090;2022-07-29T03:16:48;1.17;;;0.50;;
19778;SDS011;10049;59.306;18.090;2022-07-29T03:19:16;0.35;;;0.35;;
19778;SDS011;10049;59.306;18.090;2022-07-29T03:21:43;1.15;;;0.30;;
19778;SDS011;10049;59.306;18.090;2022-07-29T03:24:25;1.25;;;0.30;;
19778;SDS011;10049;59.306;18.090;2022-07-29T03:26:52;0.85;;;0.40;;
19778;SDS011;10049;59.306;18.090;2022-07-29T03:29:19;0.75;;;0.32;;
19778;SDS011;10049;59.306;18.090;2022-07-29T03:31:48;3.13;;;0.40;;
19778;SDS011;10049;59.306;18.090;2022-07-29T03:34:15;1.63;;;0.38;;
19778;SDS011;10049;59.306;18.090;2022-07-29T03:36:43;4.32;;;0.60;;
19778;SDS011;10049;59.306;18.090;2022-07-29T03:39:10;2.50;;;0.50;;
19778;SDS011;10049;59.306;18.090;2022-07-29T03:41:40;1.75;;;0.30;;
19778;SDS011;10049;59.306;18.090;2022-07-29T03:44:08;5.32;;;0.60;;
19778;SDS011;10049;59.306;18.090;2022-07-29T03:46:35;1.13;;;0.40;;
19778;SDS011;10049;59.306;18.090;2022-07-29T03:49:04;1.40;;;0.40;;
19778;SDS011;10049;59.306;18.090;2022-07-29T03:51:34;1.23;;;0.50;;
19778;SDS011;10049;59.306;18.090;2022-07-29T03:54:02;2.28;;;0.70;;
19778;SDS011;10049;59.306;18.090;2022-07-29T03:56:29;3.08;;;0.40;;
19778;SDS011;10049;59.306;18.090;2022-07-29T03:59:00;0.60;;;0.38;;
19778;SDS011;10049;59.306;18.090;2022-07-29T04:01:28;2.03;;;0.38;;
19778;SDS011;10049;59.306;18.090;2022-07-29T04:03:56;2.70;;;0.50;;
19778;SDS011;10049;59.306;18.090;2022-07-29T04:06:23;3.80;;;0.30;;
19778;SDS011;10049;59.306;18.090;2022-07-29T04:08:51;2.13;;;0.40;;
19778;SDS011;10049;59.306;18.090;2022-07-29T04:11:19;2.10;;;0.45;;
19778;SDS011;10049;59.306;18.090;2022-07-29T04:13:46;0.40;;;0.40;;
19778;SDS011;10049;59.306;18.090;2022-07-29T04:16:16;3.13;;;0.68;;
19778;SDS011;10049;59.306;18.090;2022-07-29T04:18:43;1.30;;;0.50;;
19778;SDS011;10049;59.306;18.090;2022-07-29T04:21:11;0.35;;;0.32;;
19778;SDS011;10049;59.306;18.090;2022-07-29T04:23:39;1.13;;;0.40;;
19778;SDS011;10049;59.306;18.090;2022-07-29T04:26:10;6.22;;;0.43;;
19778;SDS011;10049;59.306;18.090;2022-07-29T04:28:37;1.70;;;0.60;;
19778;SDS011;10049;59.306;18.090;2022-07-29T04:31:05;1.15;;;0.40;;
19778;SDS011;10049;59.306;18.090;2022-07-29T04:33:34;4.03;;;0.50;;
19778;SDS011;10049;59.306;18.090;2022-07-29T04:36:01;0.30;;;0.30;;
19778;SDS011;10049;59.306;18.090;2022-07-29T04:38:29;1.45;;;0.50;;
19778;SDS011;10049;59.306;18.090;2022-07-29T04:40:56;1.95;;;0.40;;
19778;SDS011;10049;59.306;18.090;2022-07-29T04:43:24;1.77;;;0.50;;
19778;SDS011;10049;59.306;18.090;2022-07-29T04:45:51;1.55;;;0.32;;
19778;SDS011;10049;59.306;18.090;2022-07-29T04:48:18;1.25;;;0.40;;
19778;SDS011;10049;59.306;18.090;2022-07-29T04:50:47;1.55;;;0.45;;
19778;SDS011;10049;59.306;18.090;2022-07-29T04:53:15;1.95;;;0.40;;
19778;SDS011;10049;59.306;18.090;2022-07-29T04:55:42;2.75;;;0.38;;
19778;SDS011;10049;59.306;18.090;2022-07-29T04:58:10;2.97;;;0.30;;
19778;SDS011;10049;59.306;18.090;2022-07-29T05:00:39;1.10;;;0.30;;
19778;SDS011;10049;59.306;18.090;2022-07-29T05:03:06;2.15;;;0.40;;
19778;SDS011;10049;59.306;18.090;2022-07-29T05:05:34;3.42;;;0.45;;
19778;SDS011;10049;59.306;18.090;2022-07-29T05:08:03;0.52;;;0.30;;
19778;SDS011;10049;59.306;18.090;2022-07-29T05:10:31;0.63;;;0.40;;
19778;SDS011;10049;59.306;18.090;2022-07-29T05:13:00;1.27;;;0.40;;
19778;SDS011;10049;59.306;18.090;2022-07-29T05:15:28;1.00;;;0.35;;
19778;SDS011;10049;59.306;18.090;2022-07-29T05:17:56;0.60;;;0.40;;
19778;SDS011;10049;59.306;18.090;2022-07-29T05:20:23;2.08;;;0.40;;
19778;SDS011;10049;59.306;18.090;2022-07-29T05:22:53;4.28;;;0.60;;
19778;SDS011;10049;59.306;18.090;2022-07-29T05:25:22;1.90;;;0.47;;
19778;SDS011;10049;59.306;18.090;2022-07-29T05:27:50;1.70;;;0.47;;
19778;SDS011;10049;59.306;18.090;2022-07-29T05:30:17;2.20;;;0.50;;
19778;SDS011;10049;59.306;18.090;2022-07-29T05:32:45;1.33;;;0.40;;
19778;SDS011;10049;59.306;18.090;2022-07-29T05:35:12;0.93;;;0.22;;
19778;SDS011;10049;59.306;18.090;2022-07-29T05:37:40;0.75;;;0.30;;
19778;SDS011;10049;59.306;18.090;2022-07-29T05:40:08;0.40;;;0.30;;
19778;SDS011;10049;59.306;18.090;2022-07-29T05:42:37;0.65;;;0.35;;
19778;SDS011;10049;59.306;18.090;2022-07-29T05:45:05;6.50;;;0.40;;
19778;SDS011;10049;59.306;18.090;2022-07-29T05:47:33;0.40;;;0.30;;
19778;SDS011;10049;59.306;18.090;2022-07-29T05:50:01;0.45;;;0.30;;
19778;SDS011;10049;59.306;18.090;2022-07-29T05:52:29;3.10;;;0.50;;
19778;SDS011;10049;59.306;18.090;2022-07-29T05:54:58;0.32;;;0.22;;
19778;SDS011;10049;59.306;18.090;2022-07-29T05:57:27;0.75;;;0.30;;
19778;SDS011;10049;59.306;18.090;2022-07-29T05:59:57;0.63;;;0.30;;
19778;SDS011;10049;59.306;18.090;2022-07-29T06:02:24;0.40;;;0.20;;
19778;SDS011;10049;59.306;18.090;2022-07-29T06:04:52;0.25;;;0.25;;
19778;SDS011;10049;59.306;18.090;2022-07-29T06:07:21;0.55;;;0.25;;
19778;SDS011;10049;59.306;18.090;2022-07-29T06:09:48;1.02;;;0.20;;
19778;SDS011;10049;59.306;18.090;2022-07-29T06:12:15;1.65;;;0.20;;
19778;SDS011;10049;59.306;18.090;2022-07-29T06:14:44;1.30;;;0.10;;
19778;SDS011;10049;59.306;18.090;2022-07-29T06:17:13;0.13;;;0.10;;
19778;SDS011;10049;59.306;18.090;2022-07-29T06:19:40;0.22;;;0.10;;
19778;SDS011;10049;59.306;18.090;2022-07-29T06:22:08;0.20;;;0.20;;
19778;SDS011;10049;59.306;18.090;2022-07-29T06:24:35;0.40;;;0.10;;
19778;SDS011;10049;59.306;18.090;2022-07-29T06:27:06;0.10;;;0.10;;
19778;SDS011;10049;59.306;18.090;2022-07-29T06:29:34;0.50;;;0.10;;
19778;SDS011;10049;59.306;18.090;2022-07-29T06:32:02;0.38;;;0.17;;
19778;SDS011;10049;59.306;18.090;2022-07-29T06:34:31;0.20;;;0.20;;
19778;SDS011;10049;59.306;18.090;2022-07-29T06:36:58;0.17;;;0.17;;
19778;SDS011;10049;59.306;18.090;2022-07-29T06:39:27;0.35;;;0.20;;
19778;SDS011;10049;59.306;18.090;2022-07-29T06:41:55;0.17;;;0.17;;
19778;SDS011;10049;59.306;18.090;2022-07-29T06:44:22;0.20;;;0.17;;
19778;SDS011;10049;59.306;18.090;2022-07-29T06:46:49;0.47;;;0.10;;
19778;SDS011;10049;59.306;18.090;2022-07-29T06:49:18;0.60;;;0.20;;
19778;SDS011;10049;59.306;18.090;2022-07-29T06:51:46;0.85;;;0.13;;
19778;SDS011;10049;59.306;18.090;2022-07-29T06:54:14;0.45;;;0.10;;
19778;SDS011;10049;59.306;18.090;2022-07-29T06:56:41;0.98;;;0.30;;
19778;SDS011;10049;59.306;18.090;2022-07-29T06:59:11;0.47;;;0.10;;
19778;SDS011;10049;59.306;18.090;2022-07-29T07:01:41;0.82;;;0.20;;
19778;SDS011;10049;59.306;18.090;2022-07-29T07:04:09;0.20;;;0.20;;
19778;SDS011;10049;59.306;18.090;2022-07-29T07:06:37;1.02;;;0.10;;
19778;SDS011;10049;59.306;18.090;2022-07-29T07:09:10;0.28;;;0.10;;
19778;SDS011;10049;59.306;18.090;2022-07-29T07:11:37;0.10;;;0.10;;
19778;SDS011;10049;59.306;18.090;2022-07-29T07:14:04;0.30;;;0.20;;
19778;SDS011;10049;59.306;18.090;2022-07-29T07:16:32;0.10;;;0.10;;
19778;SDS011;10049;59.306;18.090;2022-07-29T07:18:59;0.10;;;0.10;;
19778;SDS011;10049;59.306;18.090;2022-07-29T07:21:27;0.80;;;0.10;;
19778;SDS011;10049;59.306;18.090;2022-07-29T07:23:54;0.20;;;0.20;;
19778;SDS011;10049;59.306;18.090;2022-07-29T07:26:23;0.10;;;0.10;;
19778;SDS011;10049;59.306;18.090;2022-07-29T07:28:52;0.10;;;0.10;;
19778;SDS011;10049;59.306;18.090;2022-07-29T07:31:19;0.10;;;0.10;;
19778;SDS011;10049;59.306;18.090;2022-07-29T07:33:46;0.10;;;0.10;;
19778;SDS011;10049;59.306;18.090;2022-07-29T07:36:14;0.10;;;0.10;;
19778;SDS011;10049;59.306;18.090;2022-07-29T07:38:41;0.10;;;0.10;;
19778;SDS011;10049;59.306;18.090;2022-07-29T07:41:09;0.10;;;0.10;;
19778;SDS011;10049;59.306;18.090;2022-07-29T07:43:37;0.20;;;0.10;;
19778;SDS011;10049;59.306;18.090;2022-07-29T07:46:05;0.10;;;0.10;;
19778;SDS011;10049;59.306;18.090;2022-07-29T07:48:32;0.28;;;0.10;;
19778;SDS011;10049;59.306;18.090;2022-07-29T07:51:01;0.40;;;0.20;;
19778;SDS011;10049;59.306;18.090;2022-07-29T07:53:28;0.10;;;0.10;;
19778;SDS011;10049;59.306;18.090;2022-07-29T07:55:56;0.45;;;0.10;;
19778;SDS011;10049;59.306;18.090;2022-07-29T07:58:23;0.40;;;0.10;;
19778;SDS011;10049;59.306;18.090;2022-07-29T08:00:52;0.20;;;0.10;;
19778;SDS011;10049;59.306;18.090;2022-07-29T08:03:20;0.10;;;0.10;;
19778;SDS011;10049;59.306;18.090;2022-07-29T08:05:47;0.22;;;0.10;;
19778;SDS011;10049;59.306;18.090;2022-07-29T08:08:16;1.52;;;0.20;;
19778;SDS011;10049;59.306;18.090;2022-07-29T08:10:43;0.20;;;0.10;;
19778;SDS011;10049;59.306;18.090;2022-07-29T08:13:21;0.10;;;0.10;;
19778;SDS011;10049;59.306;18.090;2022-07-29T08:15:50;0.30;;;0.20;;
19778;SDS011;10049;59.306;18.090;2022-07-29T08:18:24;0.52;;;0.10;;
19778;SDS011;10049;59.306;18.090;2022-07-29T08:20:52;0.10;;;0.10;;
19778;SDS011;10049;59.306;18.090;2022-07-29T08:23:19;1.90;;;0.20;;
19778;SDS011;10049;59.306;18.090;2022-07-29T08:25:47;0.65;;;0.10;;
19778;SDS011;10049;59.306;18.090;2022-07-29T08:28:15;0.10;;;0.10;;
19778;SDS011;10049;59.306;18.090;2022-07-29T08:30:42;0.30;;;0.20;;
19778;SDS011;10049;59.306;18.090;2022-07-29T08:33:09;0.10;;;0.10;;
19778;SDS011;10049;59.306;18.090;2022-07-29T08:35:38;0.63;;;0.10;;
19778;SDS011;10049;59.306;18.090;2022-07-29T08:38:06;0.10;;;0.10;;
19778;SDS011;10049;59.306;18.090;2022-07-29T08:40:33;0.10;;;0.10;;
19778;SDS011;10049;59.306;18.090;2022-07-29T08:43:04;0.88;;;0.20;;
19778;SDS011;10049;59.306;18.090;2022-07-29T08:45:35;0.00;;;0.00;;
19778;SDS011;10049;59.306;18.090;2022-07-29T08:48:04;0.20;;;0.10;;
19778;SDS011;10049;59.306;18.090;2022-07-29T08:50:32;0.40;;;0.10;;
19778;SDS011;10049;59.306;18.090;2022-07-29T08:53:03;0.10;;;0.10;;
19778;SDS011;10049;59.306;18.090;2022-07-29T08:55:32;0.05;;;0.05;;
19778;SDS011;10049;59.306;18.090;2022-07-29T08:57:59;0.20;;;0.10;;
19778;SDS011;10049;59.306;18.090;2022-07-29T09:00:26;0.20;;;0.20;;
19778;SDS011;10049;59.306;18.090;2022-07-29T09:02:56;0.63;;;0.13;;
19778;SDS011;10049;59.306;18.090;2022-07-29T09:05:23;0.10;;;0.10;;
19778;SDS011;10049;59.306;18.090;2022-07-29T09:07:51;0.10;;;0.10;;
19778;SDS011;10049;59.306;18.090;2022-07-29T09:10:20;0.15;;;0.10;;
19778;SDS011;10049;59.306;18.090;2022-07-29T09:12:47;0.10;;;0.10;;
19778;SDS011;10049;59.306;18.090;2022-07-29T09:15:15;0.90;;;0.10;;
19778;SDS011;10049;59.306;18.090;2022-07-29T09:17:43;0.55;;;0.20;;
19778;SDS011;10049;59.306;18.090;2022-07-29T09:20:11;0.55;;;0.17;;
19778;SDS011;10049;59.306;18.090;2022-07-29T09:22:39;0.52;;;0.10;;
19778;SDS011;10049;59.306;18.090;2022-07-29T09:25:06;0.63;;;0.30;;
19778;SDS011;10049;59.306;18.090;2022-07-29T09:27:35;0.10;;;0.10;;
19778;SDS011;10049;59.306;18.090;2022-07-29T09:30:04;0.10;;;0.10;;
19778;SDS011;10049;59.306;18.090;2022-07-29T09:32:32;0.52;;;0.10;;
19778;SDS011;10049;59.306;18.090;2022-07-29T09:35:15;1.15;;;0.30;;
19778;SDS011;10049;59.306;18.090;2022-07-29T09:37:44;0.30;;;0.10;;
19778;SDS011;10049;59.306;18.090;2022-07-29T09:40:14;1.10;;;0.20;;
19778;SDS011;10049;59.306;18.090;2022-07-29T09:42:44;1.38;;;0.10;;
19778;SDS011;10049;59.306;18.090;2022-07-29T09:45:12;0.40;;;0.10;;
19778;SDS011;10049;59.306;18.090;2022-07-29T09:47:40;0.20;;;0.10;;
19778;SDS011;10049;59.306;18.090;2022-07-29T09:50:10;0.60;;;0.13;;
19778;SDS011;10049;59.306;18.090;2022-07-29T09:52:45;0.28;;;0.20;;
19778;SDS011;10049;59.306;18.090;2022-07-29T09:55:13;0.28;;;0.17;;
19778;SDS011;10049;59.306;18.090;2022-07-29T09:57:40;0.32;;;0.20;;
19778;SDS011;10049;59.306;18.090;2022-07-29T10:00:11;0.17;;;0.17;;
19778;SDS011;10049;59.306;18.090;2022-07-29T10:02:40;0.47;;;0.20;;
19778;SDS011;10049;59.306;18.090;2022-07-29T10:05:16;0.10;;;0.10;;
19778;SDS011;10049;59.306;18.090;2022-07-29T10:07:44;1.40;;;0.20;;
19778;SDS011;10049;59.306;18.090;2022-07-29T10:10:18;0.20;;;0.20;;
19778;SDS011;10049;59.306;18.090;2022-07-29T10:12:48;0.20;;;0.20;;
19778;SDS011;10049;59.306;18.090;2022-07-29T10:15:17;0.52;;;0.20;;
19778;SDS011;10049;59.306;18.090;2022-07-29T10:17:44;0.47;;;0.13;;
19778;SDS011;10049;59.306;18.090;2022-07-29T10:20:13;2.83;;;0.20;;
19778;SDS011;10049;59.306;18.090;2022-07-29T10:22:42;0.20;;;0.20;;
19778;SDS011;10049;59.306;18.090;2022-07-29T10:25:12;0.20;;;0.20;;
19778;SDS011;10049;59.306;18.090;2022-07-29T10:27:39;0.50;;;0.22;;
19778;SDS011;10049;59.306;18.090;2022-07-29T10:30:13;0.20;;;0.20;;
19778;SDS011;10049;59.306;18.090;2022-07-29T10:35:44;0.10;;;0.10;;
19778;SDS011;10049;59.306;18.090;2022-07-29T10:41:02;0.17;;;0.13;;
19778;SDS011;10049;59.306;18.090;2022-07-29T10:43:50;0.20;;;0.20;;
19778;SDS011;10049;59.306;18.090;2022-07-29T10:46:18;0.20;;;0.20;;
19778;SDS011;10049;59.306;18.090;2022-07-29T10:49:08;0.20;;;0.20;;
19778;SDS011;10049;59.306;18.090;2022-07-29T10:52:04;0.80;;;0.28;;
19778;SDS011;10049;59.306;18.090;2022-07-29T10:54:38;0.45;;;0.30;;
19778;SDS011;10049;59.306;18.090;2022-07-29T10:57:12;0.20;;;0.20;;
19778;SDS011;10049;59.306;18.090;2022-07-29T10:59:40;0.20;;;0.20;;
19778;SDS011;10049;59.306;18.090;2022-07-29T11:04:59;0.40;;;0.30;;
19778;SDS011;10049;59.306;18.090;2022-07-29T11:07:30;0.30;;;0.25;;
19778;SDS011;10049;59.306;18.090;2022-07-29T11:12:46;0.47;;;0.20;;
19778;SDS011;10049;59.306;18.090;2022-07-29T11:15:13;2.38;;;0.43;;
19778;SDS011;10049;59.306;18.090;2022-07-29T11:20:36;0.40;;;0.30;;
19778;SDS011;10049;59.306;18.090;2022-07-29T11:26:17;0.10;;;0.10;;
19778;SDS011;10049;59.306;18.090;2022-07-29T11:28:50;0.20;;;0.20;;
19778;SDS011;10049;59.306;18.090;2022-07-29T11:31:30;0.20;;;0.20;;
19778;SDS011;10049;59.306;18.090;2022-07-29T11:39:27;2.15;;;0.22;;
19778;SDS011;10049;59.306;18.090;2022-07-29T11:41:58;0.75;;;0.20;;
19778;SDS011;10049;59.306;18.090;2022-07-29T11:44:55;0.20;;;0.20;;
19778;SDS011;10049;59.306;18.090;2022-07-29T11:47:23;0.38;;;0.25;;
19778;SDS011;10049;59.306;18.090;2022-07-29T11:49:52;0.20;;;0.20;;
19778;SDS011;10049;59.306;18.090;2022-07-29T11:52:20;0.50;;;0.30;;
19778;SDS011;10049;59.306;18.090;2022-07-29T11:54:48;0.20;;;0.20;;
19778;SDS011;10049;59.306;18.090;2022-07-29T11:57:20;0.20;;;0.20;;
19778;SDS011;10049;59.306;18.090;2022-07-29T11:59:48;0.85;;;0.20;;
19778;SDS011;10049;59.306;18.090;2022-07-29T12:02:15;0.20;;;0.20;;
19778;SDS011;10049;59.306;18.090;2022-07-29T12:04:49;0.22;;;0.20;;
19778;SDS011;10049;59.306;18.090;2022-07-29T12:07:17;0.55;;;0.30;;
19778;SDS011;10049;59.306;18.090;2022-07-29T12:09:49;0.20;;;0.20;;
19778;SDS011;10049;59.306;18.090;2022-07-29T12:12:18;0.52;;;0.10;;
19778;SDS011;10049;59.306;18.090;2022-07-29T12:14:45;0.10;;;0.10;;
19778;SDS011;10049;59.306;18.090;2022-07-29T12:17:25;1.75;;;0.20;;
19778;SDS011;10049;59.306;18.090;2022-07-29T12:19:53;0.20;;;0.20;;
19778;SDS011;10049;59.306;18.090;2022-07-29T12:22:27;0.13;;;0.13;;
19778;SDS011;10049;59.306;18.090;2022-07-29T12:24:55;0.90;;;0.20;;
19778;SDS011;10049;59.306;18.090;2022-07-29T12:27:24;0.10;;;0.10;;
19778;SDS011;10049;59.306;18.090;2022-07-29T12:29:56;0.20;;;0.20;;
19778;SDS011;10049;59.306;18.090;2022-07-29T12:32:30;0.20;;;0.20;;
19778;SDS011;10049;59.306;18.090;2022-07-29T12:34:59;0.10;;;0.10;;
19778;SDS011;10049;59.306;18.090;2022-07-29T12:37:28;0.20;;;0.20;;
19778;SDS011;10049;59.306;18.090;2022-07-29T12:39:56;1.85;;;0.25;;
19778;SDS011;10049;59.306;18.090;2022-07-29T12:42:25;0.20;;;0.20;;
19778;SDS011;10049;59.306;18.090;2022-07-29T12:44:53;0.30;;;0.30;;
19778;SDS011;10049;59.306;18.090;2022-07-29T12:47:20;0.10;;;0.10;;
19778;SDS011;10049;59.306;18.090;2022-07-29T12:49:48;0.30;;;0.30;;
19778;SDS011;10049;59.306;18.090;2022-07-29T12:52:29;0.20;;;0.20;;
19778;SDS011;10049;59.306;18.090;2022-07-29T12:54:57;0.25;;;0.20;;
19778;SDS011;10049;59.306;18.090;2022-07-29T12:57:26;0.15;;;0.15;;
19778;SDS011;10049;59.306;18.090;2022-07-29T13:02:41;0.20;;;0.20;;
19778;SDS011;10049;59.306;18.090;2022-07-29T13:05:10;0.20;;;0.20;;
19778;SDS011;10049;59.306;18.090;2022-07-29T13:07:38;0.20;;;0.20;;
19778;SDS011;10049;59.306;18.090;2022-07-29T13:10:12;0.20;;;0.20;;
19778;SDS011;10049;59.306;18.090;2022-07-29T13:15:25;0.65;;;0.30;;
19778;SDS011;10049;59.306;18.090;2022-07-29T13:17:53;0.85;;;0.20;;
19778;SDS011;10049;59.306;18.090;2022-07-29T13:20:23;0.15;;;0.15;;
19778;SDS011;10049;59.306;18.090;2022-07-29T13:22:52;0.20;;;0.10;;
19778;SDS011;10049;59.306;18.090;2022-07-29T13:25:25;0.63;;;0.30;;
19778;SDS011;10049;59.306;18.090;2022-07-29T13:27:53;0.85;;;0.20;;
19778;SDS011;10049;59.306;18.090;2022-07-29T13:30:21;0.38;;;0.20;;
19778;SDS011;10049;59.306;18.090;2022-07-29T13:32:51;0.30;;;0.30;;
19778;SDS011;10049;59.306;18.090;2022-07-29T13:35:20;0.45;;;0.20;;
19778;SDS011;10049;59.306;18.090;2022-07-29T13:37:48;0.20;;;0.20;;
19778;SDS011;10049;59.306;18.090;2022-07-29T13:40:16;0.30;;;0.30;;
19778;SDS011;10049;59.306;18.090;2022-07-29T13:42:43;0.20;;;0.20;;
19778;SDS011;10049;59.306;18.090;2022-07-29T13:45:11;0.20;;;0.20;;
19778;SDS011;10049;59.306;18.090;2022-07-29T13:47:38;0.20;;;0.20;;
19778;SDS011;10049;59.306;18.090;2022-07-29T13:50:09;2.75;;;0.20;;
19778;SDS011;10049;59.306;18.090;2022-07-29T13:52:38;0.13;;;0.10;;
19778;SDS011;10049;59.306;18.090;2022-07-29T13:55:06;1.83;;;0.20;;
19778;SDS011;10049;59.306;18.090;2022-07-29T13:57:34;0.35;;;0.20;;
19778;SDS011;10049;59.306;18.090;2022-07-29T14:00:02;0.20;;;0.20;;
19778;SDS011;10049;59.306;18.090;2022-07-29T14:02:32;0.68;;;0.38;;
19778;SDS011;10049;59.306;18.090;2022-07-29T14:04:59;0.95;;;0.20;;
19778;SDS011;10049;59.306;18.090;2022-07-29T14:07:31;0.20;;;0.20;;
19778;SDS011;10049;59.306;18.090;2022-07-29T14:09:58;0.20;;;0.20;;
19778;SDS011;10049;59.306;18.090;2022-07-29T14:12:29;1.92;;;0.30;;
19778;SDS011;10049;59.306;18.090;2022-07-29T14:14:56;0.20;;;0.20;;
19778;SDS011;10049;59.306;18.090;2022-07-29T14:17:24;0.70;;;0.17;;
19778;SDS011;10049;59.306;18.090;2022-07-29T14:20:00;1.65;;;0.20;;
19778;SDS011;10049;59.306;18.090;2022-07-29T14:22:32;0.25;;;0.10;;
19778;SDS011;10049;59.306;18.090;2022-07-29T14:24:59;0.10;;;0.10;;
19778;SDS011;10049;59.306;18.090;2022-07-29T14:27:27;0.20;;;0.20;;
19778;SDS011;10049;59.306;18.090;2022-07-29T14:29:55;0.68;;;0.15;;
19778;SDS011;10049;59.306;18.090;2022-07-29T14:32:26;1.42;;;0.20;;
19778;SDS011;10049;59.306;18.090;2022-07-29T14:34:54;0.10;;;0.10;;
19778;SDS011;10049;59.306;18.090;2022-07-29T14:37:21;0.10;;;0.10;;
19778;SDS011;10049;59.306;18.090;2022-07-29T14:39:50;2.20;;;0.20;;
19778;SDS011;10049;59.306;18.090;2022-07-29T14:42:19;0.13;;;0.13;;
19778;SDS011;10049;59.306;18.090;2022-07-29T14:44:48;0.82;;;0.28;;
19778;SDS011;10049;59.306;18.090;2022-07-29T14:47:16;0.20;;;0.20;;
19778;SDS011;10049;59.306;18.090;2022-07-29T14:49:46;0.57;;;0.30;;
19778;SDS011;10049;59.306;18.090;2022-07-29T14:52:14;0.20;;;0.20;;
19778;SDS011;10049;59.306;18.090;2022-07-29T14:54:42;0.13;;;0.10;;
19778;SDS011;10049;59.306;18.090;2022-07-29T14:57:11;0.20;;;0.20;;
19778;SDS011;10049;59.306;18.090;2022-07-29T14:59:41;0.30;;;0.20;;
19778;SDS011;10049;59.306;18.090;2022-07-29T15:02:10;0.20;;;0.20;;
19778;SDS011;10049;59.306;18.090;2022-07-29T15:04:37;0.22;;;0.10;;
19778;SDS011;10049;59.306;18.090;2022-07-29T15:07:05;0.22;;;0.20;;
19778;SDS011;10049;59.306;18.090;2022-07-29T15:09:33;0.10;;;0.10;;
19778;SDS011;10049;59.306;18.090;2022-07-29T15:12:03;0.10;;;0.10;;
19778;SDS011;10049;59.306;18.090;2022-07-29T15:14:32;0.35;;;0.10;;